LFLS/GNB METAR and TAF weather

Enter ICAO airport designator
Station Type Date Time Source
LFLS METAR 2022/05/26 05:30 UTC NOAA

LFLS 260530Z AUTO 34006KT 9999 BKN058 14/09 Q1024 NOSIG


Station Type Date Time Source
LFLS Decoded METAR 2022/05/26 05:30 UTC NOAA

Grenoble / St. Geoirs, France (LFLS) 45-22N 005-20E 386M
May 26, 2022 - 01:30 AM EDT / 2022.05.26 0530 UTC
Wind: from the NNW (340 degrees) at 7 MPH (6 KT):0
Visibility: greater than 7 mile(s):0
Sky conditions: mostly cloudy
Temperature: 57 F (14 C)
Dew Point: 48 F (9 C)
Relative Humidity: 71%
Pressure (altimeter): 30.24 in. Hg (1024 hPa)
ob: LFLS 260530Z AUTO 34006KT 9999 BKN058 14/09 Q1024 NOSIG
cycle: 5

Station Type Date Time Source
LFLS TAF 2022/05/26 03:43 UTC NOAA

TAF LFLS 260200Z 2603/2703 36012KT CAVOK
TEMPO 2603/2607 VRB02KT BKN060 PROB40
TEMPO 2700/2703 VRB02KT

Example: see airport list